Terminal Aerodrome Forecast
Issued by NWS Jackson, MS

Home | Current Version | Previous Version | Text Only | Print | Product List | Glossary On
Versions: 1 2 3 4 5 6 7 8 9 10 11 12 13 14 15 16 17 18 19
000
FTUS44 KMEG 260530
TAFTUP
TAF
KTUP 260530Z 2606/2706 25004KT P6SM SKC
     FM261200 32005KT P6SM BKN012
      TEMPO 2612/2615 BKN008
     FM261600 01008KT P6SM BKN020
     FM261900 02012G18KT P6SM SCT035
     FM270000 02009KT P6SM SCT250=

USA.gov is the U.S. government's official web portal to all federal, state and local government web resources and services.